Time;durP1;ratioP1;P1;durP2;ratioP2;P2;SDS_P1;SDS_P2;PMS_P1;PMS_P2;Temp;Humidity;BMP_temperature;BMP_pressure;BME280_temperature;BME280_humidity;BME280_pressure;Samples;Min_cycle;Max_cycle;Signal;HPM_P1;HPM_P2
2022/09/14 00:01:15;;;;;;;4.22;2.58;;;;;;;25.74;41.86;100780.84;5007778;28;20051;-80
2022/09/14 00:04:04;;;;;;;6.40;2.25;;;;;;;26.17;41.96;100856.78;4992755;28;20052;-81
2022/09/14 00:06:32;;;;;;;4.20;2.15;;;;;;;26.24;42.24;100870.31;4990154;28;20373;-82
2022/09/14 00:08:59;;;;;;;6.95;2.65;;;;;;;26.03;42.55;100833.56;4990591;28;20312;-81
2022/09/14 00:11:29;;;;;;;5.15;2.50;;;;;;;25.59;42.80;100767.69;5008083;28;20058;-81
2022/09/14 00:13:57;;;;;;;3.72;2.00;;;;;;;26.14;42.81;100846.38;4990284;28;20061;-80
2022/09/14 00:16:37;;;;;;;5.90;2.42;;;;;;;25.85;43.17;100809.97;4990325;28;20725;-80
2022/09/14 00:19:22;;;;;;;3.28;2.40;;;;;;;26.03;43.04;100839.03;4989945;28;20433;-80
2022/09/14 00:21:51;;;;;;;4.57;2.28;;;;;;;25.67;43.26;100789.09;5007474;28;20386;-79
2022/09/14 00:24:18;;;;;;;2.70;1.80;;;;;;;25.93;43.34;100819.72;4990029;28;20070;-80
2022/09/14 00:26:45;;;;;;;3.67;1.98;;;;;;;26.15;43.06;100850.75;4989637;28;20556;-81
2022/09/14 00:29:11;;;;;;;8.63;3.00;;;;;;;25.80;43.43;100810.69;5007647;28;20672;-80
2022/09/14 00:31:39;;;;;;;6.68;2.03;;;;;;;25.85;43.26;100818.13;4990148;28;20557;-80
2022/09/14 00:34:08;;;;;;;3.30;2.28;;;;;;;25.35;43.13;100740.44;5008156;28;20061;-80
2022/09/14 00:36:40;;;;;;;3.60;2.53;;;;;;;25.96;43.61;100841.00;4989699;28;20504;-81
2022/09/14 00:39:07;;;;;;;3.83;2.50;;;;;;;26.03;43.37;100841.75;4989749;28;20141;-78
2022/09/14 00:41:36;;;;;;;9.10;2.88;;;;;;;25.83;43.33;100811.25;4989624;28;20825;-80
2022/09/14 00:44:07;;;;;;;5.63;2.33;;;;;;;25.95;43.52;100834.75;5005698;28;20053;-79
2022/09/14 00:46:40;;;;;;;3.33;2.40;;;;;;;25.95;43.45;100842.09;5006553;28;20058;-80
2022/09/14 00:49:24;;;;;;;4.68;2.55;;;;;;;25.98;43.50;100842.44;4989542;28;20048;-80
2022/09/14 00:52:07;;;;;;;5.28;2.10;;;;;;;25.99;43.52;100837.81;5006560;28;20132;-81
2022/09/14 00:54:42;;;;;;;3.17;1.67;;;;;;;25.98;43.62;100847.06;4989424;28;20184;-79
2022/09/14 00:57:09;;;;;;;3.35;2.25;;;;;;;25.66;43.65;100797.50;4989375;28;20536;-81
2022/09/14 00:59:39;;;;;;;4.15;2.03;;;;;;;25.97;43.48;100839.94;4989423;28;20582;-80
2022/09/14 01:02:10;;;;;;;6.70;1.95;;;;;;;25.97;43.54;100839.94;4988926;28;20081;-79
2022/09/14 01:04:37;;;;;;;;;;;;;;;25.92;43.49;100832.47;4989411;28;20080;-80
2022/09/14 01:07:29;;;;;;;3.85;1.65;;;;;;;25.93;43.64;100827.88;4989036;28;19932;-79
2022/09/14 01:10:23;;;;;;;1.85;1.70;;;;;;;26.03;43.30;100822.69;4989332;28;20076;-80
2022/09/14 01:12:58;;;;;;;4.97;2.05;;;;;;;25.82;43.60;100801.44;4989624;28;20053;-77
2022/09/14 01:15:55;;;;;;;5.90;2.20;;;;;;;25.55;43.60;100755.63;4990663;28;20198;-81
2022/09/14 01:18:27;;;;;;;3.20;1.50;;;;;;;25.45;43.71;100745.31;4992592;28;20074;-80
2022/09/14 01:21:13;;;;;;;4.82;2.20;;;;;;;25.89;43.60;100802.19;4988756;28;20160;-81
2022/09/14 01:23:46;;;;;;;4.65;2.08;;;;;;;25.58;44.06;100766.03;4989142;28;20398;-80
2022/09/14 01:26:39;;;;;;;2.63;1.88;;;;;;;25.50;43.55;100731.03;4988440;28;20049;-80
2022/09/14 01:29:15;;;;;;;3.10;1.73;;;;;;;25.96;43.82;100805.66;4989127;28;20544;-79
2022/09/14 01:31:58;;;;;;;7.43;2.10;;;;;;;25.89;43.68;100810.38;5006972;28;20138;-80
2022/09/14 01:34:56;;;;;;;2.78;1.77;;;;;;;25.86;43.74;100794.53;4989267;28;20050;-80
2022/09/14 01:37:33;;;;;;;1.70;1.50;;;;;;;25.79;44.13;100795.41;4987880;28;20428;-80
2022/09/14 01:40:25;;;;;;;7.10;2.17;;;;;;;25.85;44.61;100814.56;4988470;28;20132;-82
2022/09/14 01:42:57;;;;;;;2.55;1.67;;;;;;;25.89;44.14;100815.81;4988610;28;20344;-79
2022/09/14 01:45:27;;;;;;;4.97;1.83;;;;;;;25.91;44.12;100813.69;5004808;28;20050;-79
2022/09/14 01:47:59;;;;;;;6.45;1.70;;;;;;;25.87;44.23;100807.03;4988278;28;20499;-81
2022/09/14 01:50:40;;;;;;;2.60;1.67;;;;;;;25.84;44.57;100796.59;4988497;28;20132;-79
2022/09/14 01:53:13;;;;;;;4.82;1.80;;;;;;;25.59;44.64;100759.53;5005542;28;20053;-80
2022/09/14 01:56:00;;;;;;;6.25;1.73;;;;;;;25.86;44.39;100784.47;4988343;28;20425;-79
2022/09/14 01:58:30;;;;;;;7.45;1.92;;;;;;;25.79;44.81;100787.25;5005802;28;20395;-81
2022/09/14 02:01:00;;;;;;;6.57;2.47;;;;;;;25.61;44.43;100765.59;4988652;28;20045;-80
2022/09/14 02:03:34;;;;;;;5.37;2.00;;;;;;;25.79;44.74;100800.84;5005478;28;20065;-81
2022/09/14 02:06:22;;;;;;;7.25;1.92;;;;;;;25.77;44.75;100792.09;4988636;28;20436;-76
2022/09/14 02:08:49;;;;;;;3.20;1.60;;;;;;;25.70;45.15;100794.06;4988580;28;20478;-80
2022/09/14 02:11:16;;;;;;;3.58;1.40;;;;;;;25.57;44.62;100758.94;4988722;28;20048;-80
2022/09/14 02:13:43;;;;;;;4.20;1.60;;;;;;;25.60;44.64;100753.03;4988520;28;20045;-81
2022/09/14 02:16:09;;;;;;;2.00;1.70;;;;;;;25.39;44.48;100719.09;4988150;28;20054;-82
2022/09/14 02:18:37;;;;;;;9.48;2.15;;;;;;;25.71;44.36;100771.28;5006092;28;20132;-80
2022/09/14 02:21:26;;;;;;;4.97;1.52;;;;;;;25.75;44.15;100775.19;5005831;28;20085;-80
2022/09/14 02:23:53;;;;;;;3.53;1.60;;;;;;;25.27;43.98;100705.44;4988154;28;20049;-81
2022/09/14 02:26:21;;;;;;;3.85;2.00;;;;;;;25.73;44.28;100776.47;4988077;28;20080;-80
2022/09/14 02:28:48;;;;;;;1.77;1.38;;;;;;;25.51;44.31;100730.81;4988775;28;20050;-80
2022/09/14 02:31:43;;;;;;;6.03;2.08;;;;;;;25.71;44.56;100765.84;4992182;28;20053;-80
2022/09/14 02:34:13;;;;;;;3.15;1.90;;;;;;;25.69;44.73;100764.41;4992043;28;20115;-79
2022/09/14 02:37:00;;;;;;;8.13;1.90;;;;;;;25.66;44.29;100754.84;4991547;28;20081;-80
2022/09/14 02:40:04;;;;;;;9.73;1.95;;;;;;;24.93;44.40;100656.16;4992080;28;20045;-80
2022/09/14 02:43:00;;;;;;;3.50;1.30;;;;;;;25.56;44.43;100762.75;4991720;28;20046;-81
2022/09/14 02:45:53;;;;;;;5.40;1.60;;;;;;;25.54;44.69;100765.69;5009149;28;20144;-79
2022/09/14 02:48:55;;;;;;;6.75;1.85;;;;;;;25.55;44.35;100756.44;4991236;28;20053;-80
2022/09/14 02:51:42;;;;;;;7.88;1.92;;;;;;;25.60;44.35;100761.19;4979954;28;20089;-80
2022/09/14 02:54:26;;;;;;;3.90;1.90;;;;;;;25.52;44.26;100729.75;4991547;28;20054;-80
2022/09/14 02:56:53;;;;;;;5.80;2.17;;;;;;;25.57;44.41;100743.47;4992325;28;20064;-79
2022/09/14 02:59:19;;;;;;;3.85;2.00;;;;;;;25.53;44.46;100716.97;4991379;28;20050;-79
2022/09/14 03:01:46;;;;;;;9.07;2.42;;;;;;;25.41;44.55;100705.25;4990971;28;20049;-80
2022/09/14 03:04:13;;;;;;;4.75;2.10;;;;;;;25.15;45.17;100688.25;4991255;28;20405;-79
2022/09/14 03:06:39;;;;;;;4.13;2.10;;;;;;;25.30;45.26;100724.00;5008387;28;20410;-80
2022/09/14 03:09:06;;;;;;;3.78;2.08;;;;;;;25.48;45.13;100763.03;5008589;28;20585;-80
2022/09/14 03:11:32;;;;;;;5.65;1.83;;;;;;;25.42;45.24;100744.97;4991264;28;20042;-82
2022/09/14 03:13:59;;;;;;;6.05;2.30;;;;;;;25.31;45.54;100744.66;4991081;28;20046;-80
2022/09/14 03:16:25;;;;;;;4.85;2.20;;;;;;;25.21;45.67;100716.41;5007376;28;20063;-81
2022/09/14 03:18:52;;;;;;;8.60;2.13;;;;;;;25.02;45.75;100691.13;5008546;28;20437;-81
2022/09/14 03:21:18;;;;;;;4.45;2.28;;;;;;;25.12;45.27;100697.69;4990806;28;20064;-80
2022/09/14 03:23:48;;;;;;;2.60;2.00;;;;;;;25.33;46.27;100752.59;4991176;28;20049;-80
2022/09/14 03:26:17;;;;;;;5.05;2.13;;;;;;;25.25;46.23;100751.03;4991051;28;20058;-79
2022/09/14 03:28:44;;;;;;;7.03;2.03;;;;;;;24.96;46.60;100717.34;5007487;28;20054;-79
2022/09/14 03:31:11;;;;;;;5.03;2.47;;;;;;;25.16;46.92;100761.34;4990873;28;20052;-80
2022/09/14 03:33:38;;;;;;;9.15;2.80;;;;;;;25.05;47.06;100750.41;4990723;28;20053;-79
2022/09/14 03:36:16;;;;;;;4.00;2.20;;;;;;;25.05;47.30;100756.72;4990865;28;20173;-79
2022/09/14 03:38:48;;;;;;;3.80;2.30;;;;;;;24.89;47.63;100741.84;5008883;28;20076;-81
2022/09/14 03:41:16;;;;;;;4.60;2.10;;;;;;;24.90;47.47;100740.81;4990398;28;20056;-81
2022/09/14 03:43:42;;;;;;;6.88;2.35;;;;;;;24.28;47.26;100639.63;4990491;28;20232;-79
2022/09/14 03:46:13;;;;;;;5.75;2.67;;;;;;;24.99;47.09;100759.50;5008504;28;20115;-80
2022/09/14 03:48:40;;;;;;;5.20;2.47;;;;;;;24.89;47.32;100747.28;4990117;28;20496;-79
2022/09/14 03:51:08;;;;;;;11.00;3.20;;;;;;;23.77;47.73;100570.31;4990745;28;20056;-80
2022/09/14 03:53:35;;;;;;;7.68;2.80;;;;;;;24.92;47.81;100768.53;4990290;28;20364;-79
2022/09/14 03:56:15;;;;;;;6.18;2.78;;;;;;;24.95;47.65;100773.53;5007741;28;20054;-80
2022/09/14 03:58:43;;;;;;;9.68;3.53;;;;;;;24.71;47.47;100718.28;4990056;28;20115;-79
2022/09/14 04:01:13;;;;;;;6.78;3.30;;;;;;;24.76;48.02;100736.59;5007962;28;20053;-80
2022/09/14 04:03:40;;;;;;;6.63;3.60;;;;;;;24.24;47.77;100651.97;4990035;28;20077;-81
2022/09/14 04:06:08;;;;;;;13.23;4.30;;;;;;;24.65;47.86;100726.47;4990364;28;20045;-80
2022/09/14 04:08:39;;;;;;;7.47;3.75;;;;;;;24.50;48.19;100711.41;4989938;28;20060;-81
2022/09/14 04:11:24;;;;;;;9.85;4.00;;;;;;;24.83;47.89;100764.50;4989951;28;20069;-81
2022/09/14 04:13:51;;;;;;;7.97;3.55;;;;;;;24.83;47.54;100764.50;5006520;28;20141;-80
2022/09/14 04:16:20;;;;;;;5.47;3.60;;;;;;;24.78;47.76;100750.75;5007429;28;20454;-80
2022/09/14 04:18:47;;;;;;;8.10;4.15;;;;;;;24.80;47.64;100764.09;4990035;28;20678;-79
2022/09/14 04:21:15;;;;;;;8.98;4.82;;;;;;;24.68;47.78;100743.13;4990044;28;20145;-79
2022/09/14 04:23:42;;;;;;;8.88;4.60;;;;;;;24.81;47.98;100763.03;5005980;28;20531;-80
2022/09/14 04:26:30;;;;;;;14.55;4.03;;;;;;;24.72;47.69;100763.34;5007211;28;20401;-80
2022/09/14 04:28:57;;;;;;;7.60;4.82;;;;;;;24.76;47.93;100762.88;4989404;28;20085;-79
2022/09/14 04:31:24;;;;;;;14.20;4.68;;;;;;;24.68;47.87;100767.56;4989436;28;20045;-81
2022/09/14 04:33:52;;;;;;;7.95;4.38;;;;;;;24.51;48.07;100742.91;4989461;28;20042;-80
2022/09/14 04:36:21;;;;;;;16.83;4.70;;;;;;;24.55;48.48;100762.28;4989634;28;20062;-80
2022/09/14 04:38:52;;;;;;;5.45;3.95;;;;;;;24.63;48.29;100775.56;4986270;28;20046;-81
2022/09/14 04:41:20;;;;;;;10.75;4.45;;;;;;;24.59;48.49;100768.09;4987499;28;20145;-80
2022/09/14 04:43:49;;;;;;;7.50;4.20;;;;;;;24.61;48.70;100772.22;4969765;28;20046;-80
2022/09/14 04:46:18;;;;;;;4.70;3.92;;;;;;;24.64;48.18;100765.56;4970349;28;20078;-80
2022/09/14 04:48:45;;;;;;;9.95;5.22;;;;;;;24.45;48.56;100757.34;4996596;28;20053;-79
2022/09/14 04:51:17;;;;;;;7.70;4.35;;;;;;;24.40;48.52;100738.19;5006943;28;20053;-79
2022/09/14 04:53:46;;;;;;;11.35;4.50;;;;;;;24.52;48.65;100774.44;5006680;28;20058;-80
2022/09/14 04:56:13;;;;;;;16.02;5.15;;;;;;;24.46;49.06;100778.03;5006849;28;20050;-79
2022/09/14 04:58:43;;;;;;;10.15;4.90;;;;;;;24.31;48.75;100761.25;4989441;28;20093;-79
2022/09/14 05:01:17;;;;;;;12.57;5.45;;;;;;;24.40;49.13;100787.03;4991203;28;20056;-79
2022/09/14 05:03:44;;;;;;;17.20;8.55;;;;;;;24.41;49.28;100783.25;5009781;28;20458;-80
2022/09/14 05:06:14;;;;;;;9.80;5.25;;;;;;;24.52;48.51;100790.72;4995576;28;20057;-79
2022/09/14 05:08:41;;;;;;;8.18;5.00;;;;;;;24.42;49.30;100787.66;5006558;28;20049;-79
2022/09/14 05:11:12;;;;;;;8.30;4.55;;;;;;;24.04;49.11;100723.50;5022043;28;20487;-80
2022/09/14 05:13:40;;;;;;;8.10;5.43;;;;;;;24.08;49.27;100726.63;4986622;28;20536;-80
2022/09/14 05:16:16;;;;;;;8.02;4.57;;;;;;;24.41;49.58;100780.53;4973888;28;20226;-79
2022/09/14 05:18:43;;;;;;;14.73;5.13;;;;;;;24.40;50.20;100776.19;4998214;28;20068;-80
2022/09/14 05:21:12;;;;;;;9.88;5.18;;;;;;;23.75;50.44;100684.34;4986696;28;20141;-80
2022/09/14 05:23:46;;;;;;;9.55;5.95;;;;;;;24.36;50.33;100780.41;5004626;28;20201;-80
2022/09/14 05:26:13;;;;;;;9.98;5.10;;;;;;;24.20;50.21;100760.09;4988618;28;20182;-80
2022/09/14 05:28:49;;;;;;;7.88;4.63;;;;;;;24.24;50.48;100763.19;4989111;28;20556;-80
2022/09/14 05:31:16;;;;;;;12.55;5.10;;;;;;;24.15;50.01;100743.63;5006168;28;20497;-81
2022/09/14 05:33:42;;;;;;;10.15;5.25;;;;;;;24.24;50.54;100742.31;5005925;28;20053;-79
2022/09/14 05:36:09;;;;;;;5.82;4.80;;;;;;;24.41;51.11;100766.97;5006326;28;20157;-82
2022/09/14 05:38:37;;;;;;;11.90;5.65;;;;;;;24.39;51.46;100763.66;5006106;28;20046;-79
2022/09/14 05:41:05;;;;;;;7.45;5.22;;;;;;;24.38;51.48;100750.34;4992321;28;20054;-79
2022/09/14 05:43:32;;;;;;;8.65;5.03;;;;;;;24.28;52.16;100731.84;5005135;28;20049;-78
2022/09/14 05:46:05;;;;;;;17.13;5.47;;;;;;;23.84;52.36;100672.19;4988901;28;20418;-81
2022/09/14 05:48:36;;;;;;;7.38;4.63;;;;;;;24.18;52.31;100718.81;4988104;28;20069;-79
2022/09/14 05:51:09;;;;;;;9.43;5.50;;;;;;;24.15;52.15;100712.97;4990913;28;20445;-79
2022/09/14 05:53:36;;;;;;;15.75;6.85;;;;;;;24.17;50.95;100689.19;4985351;28;20068;-79
2022/09/14 05:56:06;;;;;;;11.13;6.45;;;;;;;24.08;50.61;100670.50;5004438;28;20136;-80
2022/09/14 05:58:35;;;;;;;11.90;6.20;;;;;;;24.53;50.46;100738.06;5007870;28;20148;-81
2022/09/14 06:01:14;;;;;;;17.23;6.28;;;;;;;24.52;50.33;100722.88;5025044;28;20520;-79
2022/09/14 06:03:43;;;;;;;10.73;5.27;;;;;;;24.31;51.55;100707.00;5008841;28;20519;-79
2022/09/14 06:06:15;;;;;;;11.70;5.38;;;;;;;24.30;51.99;100721.63;5012335;28;20315;-79
2022/09/14 06:08:51;;;;;;;10.98;5.50;;;;;;;23.76;52.65;100649.94;5012147;28;20583;-78
2022/09/14 06:11:20;;;;;;;11.23;5.53;;;;;;;24.30;52.19;100733.28;5030236;28;20063;-78
2022/09/14 06:13:48;;;;;;;18.50;6.40;;;;;;;24.35;52.23;100746.19;5013606;28;20049;-79
2022/09/14 06:16:20;;;;;;;12.35;5.10;;;;;;;24.41;52.34;100745.28;5017122;28;20222;-76
2022/09/14 06:18:51;;;;;;;12.13;5.97;;;;;;;24.37;52.32;100733.22;5012740;28;20132;-76
2022/09/14 06:34:06;;;;;;;22.00;6.03;;;;;;;25.03;51.47;100720.78;5142261;27;20349;-76
2022/09/14 06:36:33;;;;;;;13.75;5.63;;;;;;;24.92;52.20;100718.84;5121907;28;20059;-80
2022/09/14 06:39:00;;;;;;;24.48;6.22;;;;;;;24.53;52.57;100672.94;5121312;28;20054;-77
2022/09/14 06:41:31;;;;;;;21.42;5.75;;;;;;;24.81;52.27;100728.59;5123078;28;20040;-76
2022/09/14 06:44:00;;;;;;;17.52;6.00;;;;;;;24.73;52.39;100718.88;5122766;28;20058;-77
2022/09/14 06:46:30;;;;;;;18.42;6.43;;;;;;;24.92;51.62;100744.09;5124177;28;20051;-76
2022/09/14 06:49:04;;;;;;;24.10;6.32;;;;;;;24.92;51.60;100741.38;5123110;28;20508;-76
2022/09/14 06:51:34;;;;;;;15.02;5.97;;;;;;;25.05;51.73;100758.56;5122709;28;20691;-77
2022/09/14 06:54:01;;;;;;;12.88;5.88;;;;;;;25.00;52.04;100742.13;5122512;28;20120;-76
2022/09/14 06:56:30;;;;;;;14.52;5.93;;;;;;;25.19;51.16;100754.66;5122927;28;20410;-77
2022/09/14 06:58:58;;;;;;;16.80;5.93;;;;;;;24.79;50.94;100681.00;5123978;27;20048;-77
2022/09/14 07:01:26;;;;;;;12.77;5.60;;;;;;;25.32;50.61;100753.66;5123090;28;20113;-77
2022/09/14 07:03:53;;;;;;;17.00;5.03;;;;;;;25.26;49.54;100747.25;5123856;28;20047;-77
2022/09/14 07:06:26;;;;;;;20.73;6.60;;;;;;;25.28;50.25;100750.56;5123468;28;20139;-79
2022/09/14 07:08:54;;;;;;;13.55;4.90;;;;;;;25.41;51.11;100754.97;5106636;28;20069;-77
2022/09/14 07:11:28;;;;;;;10.45;5.43;;;;;;;25.22;49.61;100721.63;5122919;28;20051;-78
2022/09/14 07:13:57;;;;;;;11.45;5.20;;;;;;;25.52;49.94;100762.34;5123156;28;20415;-77
2022/09/14 07:16:29;;;;;;;15.20;5.88;;;;;;;25.44;50.10;100749.09;5106407;28;20047;-77
2022/09/14 07:18:57;;;;;;;;;;;;;;;25.64;49.46;100769.72;5123200;28;20075;-80
2022/09/14 07:21:24;;;;;;;8.63;5.57;;;;;;;25.65;49.10;100771.38;5121654;28;19923;-79
2022/09/14 07:23:51;;;;;;;8.88;5.18;;;;;;;25.83;49.10;100800.38;5122022;28;20053;-78
2022/09/14 07:26:20;;;;;;;13.18;5.10;;;;;;;25.86;48.46;100789.91;5123149;28;20043;-77
2022/09/14 07:28:51;;;;;;;24.30;5.82;;;;;;;25.99;49.00;100816.06;5121374;28;20078;-77
2022/09/14 07:31:23;;;;;;;11.75;5.47;;;;;;;26.13;47.82;100822.13;5122216;28;20051;-78
2022/09/14 07:33:55;;;;;;;46.30;8.77;;;;;;;26.34;47.33;100826.19;5115780;27;20117;-76
2022/09/14 07:36:24;;;;;;;22.17;6.80;;;;;;;26.28;46.82;100810.78;5109307;28;20058;-83
2022/09/14 07:38:52;;;;;;;94.55;21.80;;;;;;;26.44;48.30;100851.72;5087366;28;20107;-77
2022/09/14 07:41:20;;;;;;;14.45;4.60;;;;;;;26.50;47.33;100865.47;5087462;28;20048;-75
2022/09/14 07:43:52;;;;;;;14.73;4.80;;;;;;;26.45;47.68;100849.84;5086118;28;20044;-81
2022/09/14 07:46:22;;;;;;;23.17;5.93;;;;;;;25.75;47.50;100739.00;5087883;28;20044;-91
2022/09/14 07:49:01;;;;;;;20.08;4.80;;;;;;;26.59;47.79;100881.25;5078849;28;20058;-80
2022/09/14 07:51:29;;;;;;;9.50;4.15;;;;;;;26.61;47.46;100887.28;5105951;28;20048;-79
2022/09/14 07:53:56;;;;;;;12.15;4.50;;;;;;;26.62;47.53;100908.00;5105761;28;20047;-82
2022/09/14 07:56:24;;;;;;;8.63;4.22;;;;;;;26.40;47.62;100877.75;5105044;28;20502;-78
2022/09/14 07:58:57;;;;;;;10.10;3.95;;;;;;;26.55;46.85;100904.56;5106342;28;20055;-80
2022/09/14 08:01:48;;;;;;;4.50;3.70;;;;;;;26.63;47.15;100939.63;5106563;28;20051;-79
2022/09/14 08:04:15;;;;;;;8.55;4.70;;;;;;;26.75;47.06;100950.53;5107058;28;20153;-79
2022/09/14 08:06:41;;;;;;;4.68;4.00;;;;;;;26.83;46.75;100947.44;5106919;28;20051;-79
2022/09/14 08:09:11;;;;;;;7.53;3.30;;;;;;;26.26;46.29;100826.50;5106751;28;20538;-79
2022/09/14 08:11:40;;;;;;;9.40;4.28;;;;;;;26.00;46.95;100796.78;5107053;28;20281;-79
2022/09/14 08:14:12;;;;;;;12.98;4.25;;;;;;;26.08;46.71;100822.00;5107039;28;20047;-79
2022/09/14 08:16:41;;;;;;;8.18;4.53;;;;;;;26.81;46.65;100921.50;5108567;28;20140;-79
2022/09/14 08:19:19;;;;;;;15.00;5.03;;;;;;;26.86;47.04;100925.19;5107206;28;20051;-81
2022/09/14 08:21:48;;;;;;;8.52;4.35;;;;;;;26.32;46.34;100828.31;5107238;28;20047;-80
2022/09/14 08:24:20;;;;;;;12.57;4.53;;;;;;;26.38;46.29;100841.78;5107226;28;20131;-80
2022/09/14 08:26:48;;;;;;;11.60;4.63;;;;;;;27.19;45.74;100931.97;5106894;28;20440;-79
2022/09/14 08:29:16;;;;;;;10.73;4.15;;;;;;;27.12;45.94;100935.84;5106651;28;20469;-79
2022/09/14 08:31:45;;;;;;;10.43;4.72;;;;;;;26.88;46.10;100897.72;5106743;28;20123;-79
2022/09/14 08:34:14;;;;;;;9.35;4.28;;;;;;;27.17;46.40;100942.22;5106832;28;20051;-78
2022/09/14 08:36:43;;;;;;;10.90;4.55;;;;;;;27.20;46.22;100935.50;5107230;28;20131;-77
2022/09/14 08:39:11;;;;;;;7.38;4.90;;;;;;;27.16;46.67;100935.13;5107737;28;20142;-78
2022/09/14 08:41:42;;;;;;;8.25;5.40;;;;;;;26.34;46.52;100796.25;5109310;28;20174;-80
2022/09/14 08:44:15;;;;;;;15.82;5.13;;;;;;;26.92;46.76;100879.84;5110216;28;20067;-80
2022/09/14 08:46:48;;;;;;;15.43;6.25;;;;;;;27.20;46.59;100919.16;5108340;28;20073;-79
2022/09/14 08:49:20;;;;;;;8.25;5.20;;;;;;;27.32;46.66;100936.31;5106470;28;20130;-80
2022/09/14 08:51:48;;;;;;;11.60;5.38;;;;;;;26.38;46.39;100767.47;5106391;28;20078;-79
2022/09/14 08:54:15;;;;;;;10.65;5.65;;;;;;;27.26;47.04;100919.03;5106357;28;20051;-78
2022/09/14 08:56:45;;;;;;;9.45;5.10;;;;;;;27.43;46.12;100923.72;5106082;28;20051;-79
2022/09/14 08:59:38;;;;;;;10.25;4.97;;;;;;;27.48;45.90;100929.31;5107351;28;20124;-81
2022/09/14 09:02:30;;;;;;;11.48;5.13;;;;;;;27.40;46.65;100925.03;5105923;28;20127;-80
2022/09/14 09:05:00;;;;;;;16.55;5.95;;;;;;;27.53;46.09;100923.13;5106350;28;20398;-80
2022/09/14 09:07:49;;;;;;;7.97;5.05;;;;;;;27.65;45.81;100932.09;5105971;28;20074;-81
2022/09/14 09:10:22;;;;;;;9.65;4.65;;;;;;;27.58;46.14;100909.59;5106274;28;20048;-78
2022/09/14 09:13:04;;;;;;;9.43;4.90;;;;;;;26.98;46.34;100824.38;5106273;28;20130;-78
2022/09/14 09:15:35;;;;;;;14.50;4.82;;;;;;;27.60;45.95;100912.88;5107431;28;20573;-80
2022/09/14 09:18:14;;;;;;;7.45;4.90;;;;;;;27.75;45.78;100934.22;5106954;28;20132;-80
2022/09/14 09:20:49;;;;;;;9.25;5.80;;;;;;;27.49;45.66;100907.22;5106106;28;20079;-79
2022/09/14 09:23:18;;;;;;;9.07;4.80;;;;;;;27.51;46.45;100936.19;5105229;28;20131;-80
2022/09/14 09:25:58;;;;;;;9.10;4.80;;;;;;;27.59;45.41;100933.06;5105996;28;20051;-82
2022/09/14 09:28:27;;;;;;;10.48;4.70;;;;;;;27.97;45.02;100975.31;5105663;28;20055;-79
2022/09/14 09:31:05;;;;;;;9.68;4.75;;;;;;;27.67;45.40;100936.25;5108172;28;20047;-76
2022/09/14 09:33:38;;;;;;;10.80;4.82;;;;;;;27.81;45.51;100946.84;5106747;28;20087;-80
2022/09/14 09:36:07;;;;;;;16.25;5.57;;;;;;;27.99;45.25;100974.00;5106157;28;20183;-80
2022/09/14 09:38:34;;;;;;;8.73;4.90;;;;;;;28.17;45.36;101002.97;5086754;28;20071;-79
2022/09/14 09:41:23;;;;;;;10.05;5.05;;;;;;;28.25;44.76;101002.59;5085454;28;20055;-82
2022/09/14 09:44:00;;;;;;;9.25;4.32;;;;;;;27.86;45.09;100952.44;5084836;28;20105;-81
2022/09/14 09:46:30;;;;;;;6.80;4.78;;;;;;;27.57;44.14;100865.13;5085288;28;20135;-77
2022/09/14 09:48:58;;;;;;;10.38;4.70;;;;;;;28.59;43.68;101019.06;5093932;28;20514;-80
2022/09/14 09:51:30;;;;;;;10.90;4.97;;;;;;;28.10;43.49;100931.34;5104794;28;20585;-79
2022/09/14 09:54:16;;;;;;;13.55;5.63;;;;;;;28.46;43.57;100979.25;5105677;28;20060;-80
2022/09/14 09:56:57;;;;;;;12.10;5.55;;;;;;;28.24;43.97;100961.91;5104779;28;20134;-79
2022/09/14 09:59:34;;;;;;;13.32;4.82;;;;;;;27.90;44.19;100890.88;5104025;28;20134;-78
2022/09/14 10:02:21;;;;;;;5.10;4.45;;;;;;;28.62;44.11;100980.34;5104125;28;20051;-81
2022/09/14 10:05:08;;;;;;;11.68;5.05;;;;;;;27.94;43.51;100853.84;5102000;28;20051;-81
2022/09/14 10:07:49;;;;;;;9.25;5.28;;;;;;;28.23;43.76;100876.47;5105310;28;20275;-79
2022/09/14 10:10:20;;;;;;;8.68;4.53;;;;;;;28.63;43.83;100921.09;5105713;28;20048;-81
2022/09/14 10:12:52;;;;;;;9.32;4.95;;;;;;;27.61;43.83;100745.50;5105089;28;20128;-80
2022/09/14 10:15:21;;;;;;;7.82;4.88;;;;;;;27.90;43.69;100798.94;5105224;28;20048;-81
2022/09/14 10:18:03;;;;;;;8.70;4.80;;;;;;;28.11;44.60;100815.66;5105764;28;20351;-80
2022/09/14 10:20:30;;;;;;;14.93;5.63;;;;;;;28.73;44.00;100924.78;5105959;28;20075;-81
2022/09/14 10:23:19;;;;;;;9.80;5.18;;;;;;;28.03;44.64;100813.34;5106418;28;20058;-78
2022/09/14 10:25:47;;;;;;;9.85;5.07;;;;;;;27.97;44.17;100795.25;5104978;28;20403;-80
2022/09/14 10:28:29;;;;;;;11.50;4.60;;;;;;;28.48;43.74;100847.94;5104898;28;20134;-79
2022/09/14 10:31:01;;;;;;;8.82;4.78;;;;;;;28.51;44.04;100836.53;5105667;28;20062;-78
2022/09/14 10:33:29;;;;;;;7.35;4.32;;;;;;;28.34;44.49;100796.38;5107017;28;20079;-78
2022/09/14 10:36:22;;;;;;;13.77;6.97;;;;;;;28.36;43.81;100760.63;5103714;28;20071;-79
2022/09/14 10:38:52;;;;;;;14.00;4.40;;;;;;;28.68;44.19;100801.81;5083843;28;20044;-76
2022/09/14 10:41:40;;;;;;;7.63;4.80;;;;;;;28.61;45.44;100798.44;5083239;28;20787;-77
2022/09/14 10:44:25;;;;;;;9.70;4.57;;;;;;;28.27;44.52;100719.28;5085022;28;20060;-78
2022/09/14 10:47:25;;;;;;;11.52;5.63;;;;;;;28.57;45.64;100752.75;5090267;28;20272;-81
2022/09/14 10:50:05;;;;;;;8.95;5.25;;;;;;;28.62;44.99;100755.56;5103118;28;20056;-81
2022/09/14 10:52:55;;;;;;;13.07;5.30;;;;;;;28.61;44.62;100756.63;5104620;28;20062;-82
2022/09/14 10:55:45;;;;;;;12.70;5.25;;;;;;;28.52;44.88;100739.84;5090226;28;20042;-82
2022/09/14 10:58:27;;;;;;;13.63;5.37;;;;;;;28.63;45.12;100744.38;5104378;28;20040;-82
2022/09/14 11:01:08;;;;;;;9.55;4.88;;;;;;;28.54;45.37;100738.53;5104519;28;20069;-81
2022/09/14 11:04:09;;;;;;;5.35;4.18;;;;;;;28.19;45.34;100697.06;5103891;28;20046;-82
2022/09/14 11:07:23;;;;;;;10.93;5.68;;;;;;;28.73;45.50;100779.19;5104403;28;20120;-80
2022/09/14 11:10:20;;;;;;;10.35;4.43;;;;;;;28.67;45.52;100764.66;5044941;28;20048;-81
2022/09/14 11:12:50;;;;;;;6.78;4.00;;;;;;;27.74;45.55;100627.88;5093765;28;20050;-81
2022/09/14 11:15:28;;;;;;;10.07;4.10;;;;;;;28.52;45.87;100756.22;5087964;28;20044;-81
2022/09/14 11:17:55;;;;;;;9.25;4.95;;;;;;;28.68;46.17;100788.16;5088415;28;20044;-81
2022/09/14 11:20:31;;;;;;;15.02;8.23;;;;;;;28.70;46.05;100780.53;5086386;28;20145;-82
2022/09/14 11:23:17;;;;;;;11.23;4.80;;;;;;;28.75;46.55;100777.88;5086702;28;20046;-81
2022/09/14 11:25:53;;;;;;;11.15;4.88;;;;;;;28.52;46.59;100756.22;5107931;28;20119;-82
2022/09/14 11:28:39;;;;;;;10.40;4.70;;;;;;;28.57;47.05;100759.06;5108029;28;20612;-82
2022/09/14 11:31:14;;;;;;;7.13;4.18;;;;;;;28.73;47.04;100763.63;5109161;28;20040;-81
2022/09/14 11:33:59;;;;;;;8.02;4.13;;;;;;;27.46;48.26;100560.69;5108427;28;20360;-82
2022/09/14 11:36:40;;;;;;;7.32;4.28;;;;;;;28.16;47.92;100675.72;5108658;28;20043;-81
2022/09/14 11:39:20;;;;;;;9.15;4.40;;;;;;;28.65;47.88;100727.75;5088108;28;20048;-82
2022/09/14 11:41:59;;;;;;;5.07;3.58;;;;;;;28.61;48.15;100721.97;5087568;28;20044;-82
2022/09/14 11:44:29;;;;;;;9.55;4.25;;;;;;;28.14;48.02;100651.44;5087309;28;20076;-81
2022/09/14 11:47:04;;;;;;;8.02;4.25;;;;;;;28.77;47.90;100756.59;5087934;28;20050;-82
2022/09/14 11:49:46;;;;;;;6.25;3.50;;;;;;;28.87;47.67;100752.34;5107816;28;20047;-82
2022/09/14 11:52:25;;;;;;;7.65;3.85;;;;;;;28.87;47.42;100730.47;5107728;28;20122;-82
2022/09/14 11:54:53;;;;;;;12.27;4.32;;;;;;;28.95;47.99;100719.91;5107604;28;20047;-82
2022/09/14 11:57:24;;;;;;;7.53;4.18;;;;;;;28.85;47.57;100653.41;5108636;28;20380;-81
2022/09/14 11:59:53;;;;;;;8.50;4.28;;;;;;;29.19;47.35;100708.72;5108301;28;20046;-82
2022/09/14 12:02:26;;;;;;;6.63;4.25;;;;;;;29.46;47.03;100719.66;5107195;28;20424;-83
2022/09/14 12:05:06;;;;;;;9.40;4.18;;;;;;;29.52;47.18;100704.94;5108588;28;20043;-82